createdAt,value
2019-02-22T00:01:43.904Z,10.80
2019-02-22T00:04:10.915Z,10.80
2019-02-22T00:06:37.569Z,10.80
2019-02-22T00:09:05.118Z,10.80
2019-02-22T00:11:32.135Z,10.70
2019-02-22T00:13:58.834Z,10.70
2019-02-22T00:16:25.686Z,10.70
2019-02-22T00:18:52.308Z,10.70
2019-02-22T00:21:18.952Z,10.70
2019-02-22T00:23:46.027Z,10.70
2019-02-22T00:26:13.094Z,10.70
2019-02-22T00:28:40.111Z,10.40
2019-02-22T00:31:06.727Z,10.70
2019-02-22T00:33:33.403Z,10.70
2019-02-22T00:36:00.153Z,10.30
2019-02-22T00:38:27.265Z,10.70
2019-02-22T00:40:54.055Z,10.70
2019-02-22T00:43:20.773Z,10.70
2019-02-22T00:45:47.468Z,10.70
2019-02-22T00:48:14.085Z,10.60
2019-02-22T00:50:40.649Z,10.60
2019-02-22T00:53:07.257Z,10.60
2019-02-22T00:55:33.961Z,10.60
2019-02-22T00:58:00.571Z,10.60
2019-02-22T01:00:27.210Z,10.40
2019-02-22T01:02:53.893Z,10.60
2019-02-22T01:05:20.755Z,10.60
2019-02-22T01:07:47.333Z,10.60
2019-02-22T01:10:14.039Z,10.60
2019-02-22T01:12:41.481Z,10.60
2019-02-22T01:15:08.219Z,10.60
2019-02-22T01:17:36.679Z,10.60
2019-02-22T01:20:03.271Z,10.60
2019-02-22T01:22:30.007Z,10.50
2019-02-22T01:24:56.666Z,10.50
2019-02-22T01:27:23.315Z,10.50
2019-02-22T01:29:49.895Z,10.50
2019-02-22T01:32:16.477Z,10.50
2019-02-22T01:34:43.142Z,10.50
2019-02-22T01:37:09.940Z,10.50
2019-02-22T01:39:36.662Z,10.50
2019-02-22T01:42:03.367Z,10.50
2019-02-22T01:44:29.932Z,10.50
2019-02-22T01:46:56.658Z,10.50
2019-02-22T01:49:24.443Z,10.50
2019-02-22T01:51:51.337Z,10.50
2019-02-22T01:54:17.994Z,10.50
2019-02-22T01:56:48.699Z,10.40
2019-02-22T01:59:15.225Z,10.50
2019-02-22T02:01:42.443Z,10.40
2019-02-22T02:04:09.020Z,10.40
2019-02-22T02:06:35.586Z,10.40
2019-02-22T02:09:03.940Z,10.50
2019-02-22T02:11:30.850Z,10.40
2019-02-22T02:13:57.792Z,10.40
2019-02-22T02:16:24.366Z,10.40
2019-02-22T02:18:51.004Z,10.40
2019-02-22T02:21:18.072Z,10.40
2019-02-22T02:23:46.498Z,10.40
2019-02-22T02:26:13.516Z,10.40
2019-02-22T02:28:40.334Z,10.40
2019-02-22T02:31:08.200Z,10.40
2019-02-22T02:33:34.786Z,10.40
2019-02-22T02:36:01.418Z,10.40
2019-02-22T02:38:27.957Z,10.40
2019-02-22T02:41:06.849Z,10.40
2019-02-22T02:43:22.992Z,10.40
2019-02-22T02:45:49.588Z,10.40
2019-02-22T02:48:16.237Z,10.40
2019-02-22T02:50:42.825Z,10.30
2019-02-22T02:53:10.146Z,10.30
2019-02-22T02:55:38.685Z,10.30
2019-02-22T02:58:07.135Z,10.30
2019-02-22T03:00:33.629Z,10.30
2019-02-22T03:03:00.408Z,10.30
2019-02-22T03:05:45.569Z,10.30
2019-02-22T03:08:12.686Z,10.30
2019-02-22T03:10:39.633Z,10.30
2019-02-22T03:13:06.191Z,10.30
2019-02-22T03:15:32.885Z,10.20
2019-02-22T03:17:59.549Z,10.30
2019-02-22T03:20:26.164Z,10.30
2019-02-22T03:22:52.860Z,10.30
2019-02-22T03:25:19.676Z,10.30
2019-02-22T03:27:46.611Z,10.30
2019-02-22T03:30:13.337Z,10.30
2019-02-22T03:32:40.052Z,10.30
2019-02-22T03:35:06.650Z,10.30
2019-02-22T03:37:33.253Z,10.20
2019-02-22T03:40:00.393Z,10.20
2019-02-22T03:42:27.199Z,10.20
2019-02-22T03:44:53.878Z,10.20
2019-02-22T03:47:20.558Z,10.20
2019-02-22T03:49:47.196Z,10.20
2019-02-22T03:52:39.021Z,10.20
2019-02-22T03:55:05.639Z,10.20
2019-02-22T03:57:34.148Z,10.20
2019-02-22T04:00:00.853Z,10.20
2019-02-22T04:02:27.554Z,10.20
2019-02-22T04:04:54.123Z,10.20
2019-02-22T04:07:21.072Z,10.20
2019-02-22T04:09:47.939Z,10.20
2019-02-22T04:12:14.875Z,10.20
2019-02-22T04:14:41.522Z,10.20
2019-02-22T04:17:11.305Z,10.20
2019-02-22T04:19:36.870Z,10.10
2019-02-22T04:22:03.460Z,10.10
2019-02-22T04:24:30.115Z,10.10
2019-02-22T04:26:56.681Z,10.10
2019-02-22T04:29:24.908Z,10.10
2019-02-22T04:31:51.518Z,10.10
2019-02-22T04:34:18.160Z,10.10
2019-02-22T04:36:44.779Z,10.10
2019-02-22T04:39:11.468Z,10.10
2019-02-22T04:41:38.196Z,10.10
2019-02-22T04:44:05.063Z,10.10
2019-02-22T04:46:31.662Z,10.10
2019-02-22T04:48:58.342Z,10.10
2019-02-22T04:51:25.043Z,10.10
2019-02-22T04:53:51.636Z,10.10
2019-02-22T04:56:18.620Z,10.10
2019-02-22T04:58:45.389Z,10.10
2019-02-22T05:01:11.982Z,10.10
2019-02-22T05:03:38.973Z,10.10
2019-02-22T05:06:05.769Z,10.10
2019-02-22T05:08:32.449Z,10.10
2019-02-22T05:10:59.225Z,10.10
2019-02-22T05:13:25.845Z,9.80
2019-02-22T05:15:52.791Z,10.10
2019-02-22T05:18:20.404Z,10.10
2019-02-22T05:20:47.405Z,10.00
2019-02-22T05:23:15.225Z,10.00
2019-02-22T05:25:42.208Z,10.00
2019-02-22T05:28:10.725Z,10.00
2019-02-22T05:30:39.001Z,10.00
2019-02-22T05:33:07.271Z,10.00
2019-02-22T05:35:34.218Z,10.00
2019-02-22T05:38:00.841Z,10.00
2019-02-22T05:40:27.433Z,10.00
2019-02-22T05:42:54.109Z,10.00
2019-02-22T05:45:20.636Z,10.00
2019-02-22T05:47:47.359Z,10.00
2019-02-22T05:50:14.251Z,10.00
2019-02-22T05:52:40.840Z,10.00
2019-02-22T05:55:07.462Z,10.00
2019-02-22T05:57:34.160Z,10.00
2019-02-22T06:00:00.995Z,10.00
2019-02-22T06:02:28.184Z,10.00
2019-02-22T06:04:54.763Z,10.00
2019-02-22T06:07:21.744Z,10.00
2019-02-22T06:09:48.330Z,10.00
2019-02-22T06:12:15.019Z,10.00
2019-02-22T06:14:41.640Z,10.00
2019-02-22T06:17:14.509Z,10.00
2019-02-22T06:19:36.713Z,10.00
2019-02-22T06:22:03.299Z,9.90
2019-02-22T06:24:30.973Z,9.90
2019-02-22T06:26:57.584Z,9.90
2019-02-22T06:29:24.504Z,9.90
2019-02-22T06:31:51.220Z,9.90
2019-02-22T06:34:17.821Z,9.90
2019-02-22T06:36:45.521Z,9.90
2019-02-22T06:39:12.205Z,9.90
2019-02-22T06:41:39.086Z,9.90
2019-02-22T06:44:05.912Z,9.90
2019-02-22T06:46:32.509Z,9.90
2019-02-22T06:48:59.100Z,9.90
2019-02-22T06:51:26.178Z,9.90
2019-02-22T06:53:54.759Z,9.90
2019-02-22T06:56:24.139Z,9.90
2019-02-22T06:58:49.720Z,9.90
2019-02-22T07:01:16.308Z,9.90
2019-02-22T07:03:43.041Z,9.90
2019-02-22T07:08:49.139Z,9.60
2019-02-22T07:11:41.662Z,9.90
2019-02-22T07:14:08.477Z,9.90
2019-02-22T07:16:36.493Z,9.90
2019-02-22T07:19:03.464Z,9.90
2019-02-22T07:21:43.770Z,9.90
2019-02-22T07:23:59.010Z,9.90
2019-02-22T07:26:26.090Z,9.80
2019-02-22T07:28:52.710Z,9.80
2019-02-22T07:31:19.724Z,9.80
2019-02-22T07:33:46.457Z,9.80
2019-02-22T07:36:13.709Z,9.80
2019-02-22T07:38:40.736Z,9.80
2019-02-22T07:41:07.936Z,9.80
2019-02-22T07:43:34.942Z,9.80
2019-02-22T07:46:02.125Z,9.80
2019-02-22T07:48:28.755Z,9.80
2019-02-22T07:50:58.114Z,9.80
2019-02-22T07:53:24.046Z,9.80
2019-02-22T07:55:50.686Z,9.80
2019-02-22T07:58:17.389Z,9.80
2019-02-22T08:00:44.155Z,9.80
2019-02-22T08:03:10.999Z,9.80
2019-02-22T08:05:37.571Z,9.80
2019-02-22T08:08:06.090Z,9.50
2019-02-22T08:10:34.019Z,9.70
2019-02-22T08:13:00.645Z,9.80
2019-02-22T08:15:27.212Z,9.80
2019-02-22T08:17:54.384Z,9.80
2019-02-22T08:20:21.406Z,9.80
2019-02-22T08:22:48.529Z,9.80
2019-02-22T08:25:15.248Z,9.80
2019-02-22T08:27:53.085Z,9.80
2019-02-22T08:30:10.454Z,9.80
2019-02-22T08:32:37.187Z,9.80
2019-02-22T08:35:04.291Z,9.80
2019-02-22T08:37:31.284Z,9.80
2019-02-22T08:39:58.986Z,9.80
2019-02-22T08:42:27.567Z,9.80
2019-02-22T08:44:54.237Z,9.80
2019-02-22T08:47:21.282Z,9.80
2019-02-22T08:49:47.887Z,9.80
2019-02-22T08:52:14.592Z,9.80
2019-02-22T08:54:47.111Z,9.80
2019-02-22T08:57:10.333Z,9.80
2019-02-22T08:59:37.096Z,9.80
2019-02-22T09:02:03.800Z,9.80
2019-02-22T09:04:30.498Z,9.80
2019-02-22T09:06:57.334Z,9.80
2019-02-22T09:09:24.401Z,9.80
2019-02-22T09:11:51.148Z,9.80
2019-02-22T09:14:17.755Z,9.80
2019-02-22T09:16:44.620Z,9.80
2019-02-22T09:19:12.424Z,9.80
2019-02-22T09:21:40.666Z,9.80
2019-02-22T09:24:07.404Z,9.80
2019-02-22T09:26:34.038Z,9.80
2019-02-22T09:29:00.747Z,9.80
2019-02-22T09:31:27.340Z,9.80
2019-02-22T09:33:53.963Z,9.80
2019-02-22T09:36:20.670Z,9.80
2019-02-22T09:38:47.288Z,9.80
2019-02-22T09:41:13.935Z,9.80
2019-02-22T09:43:40.558Z,9.80
2019-02-22T09:46:07.274Z,9.80
2019-02-22T09:48:37.096Z,9.80
2019-02-22T09:51:03.879Z,9.80
2019-02-22T09:53:32.453Z,9.80
2019-02-22T09:55:59.156Z,9.80
2019-02-22T09:58:26.197Z,9.80
2019-02-22T10:00:53.129Z,9.80
2019-02-22T10:03:19.738Z,9.90
2019-02-22T10:05:46.600Z,9.90
2019-02-22T10:08:13.224Z,9.90
2019-02-22T10:10:40.097Z,9.90
2019-02-22T10:13:06.640Z,9.90
2019-02-22T10:15:36.322Z,9.80
2019-02-22T10:18:03.202Z,9.90
2019-02-22T10:20:31.281Z,9.90
2019-02-22T10:22:57.838Z,9.90
2019-02-22T10:25:24.781Z,9.90
2019-02-22T10:27:51.405Z,9.90
2019-02-22T10:30:17.996Z,9.90
2019-02-22T10:32:44.542Z,9.90
2019-02-22T10:35:11.470Z,9.90
2019-02-22T10:37:38.225Z,9.70
2019-02-22T10:40:04.995Z,10.00
2019-02-22T10:42:31.639Z,10.00
2019-02-22T10:44:58.515Z,10.00
2019-02-22T10:47:25.209Z,10.00
2019-02-22T10:49:51.933Z,10.00
2019-02-22T10:52:19.233Z,10.00
2019-02-22T10:54:47.118Z,10.00
2019-02-22T10:57:13.683Z,10.00
2019-02-22T10:59:42.181Z,10.00
2019-02-22T11:02:08.791Z,10.10
2019-02-22T11:04:35.805Z,10.10
2019-02-22T11:07:02.494Z,10.10
2019-02-22T11:09:29.117Z,10.10
2019-02-22T11:11:55.882Z,10.10
2019-02-22T11:14:29.158Z,10.10
2019-02-22T11:16:52.114Z,10.10
2019-02-22T11:19:18.929Z,10.10
2019-02-22T11:21:45.533Z,10.10
2019-02-22T11:24:12.182Z,10.20
2019-02-22T11:26:39.026Z,10.20
2019-02-22T11:29:06.281Z,10.20
2019-02-22T11:31:33.024Z,10.20
2019-02-22T11:33:59.980Z,10.20
2019-02-22T11:36:26.682Z,10.30
2019-02-22T11:38:53.677Z,10.30
2019-02-22T11:41:21.780Z,10.30
2019-02-22T11:43:48.386Z,10.30
2019-02-22T11:46:16.469Z,10.30
2019-02-22T11:48:43.048Z,10.30
2019-02-22T11:51:09.938Z,10.20
2019-02-22T11:53:36.518Z,10.40
2019-02-22T11:56:05.128Z,10.40
2019-02-22T11:58:31.854Z,10.40
2019-02-22T12:00:59.011Z,10.40
2019-02-22T12:03:28.146Z,10.40
2019-02-22T12:05:54.851Z,10.40
2019-02-22T12:08:23.061Z,10.50
2019-02-22T12:10:49.790Z,10.50
2019-02-22T12:13:17.672Z,10.50
2019-02-22T12:15:44.385Z,10.50
2019-02-22T12:18:11.314Z,10.50
2019-02-22T12:20:38.125Z,10.60
2019-02-22T12:23:04.875Z,10.60
2019-02-22T12:25:31.972Z,10.60
2019-02-22T12:27:59.032Z,10.60
2019-02-22T12:30:27.087Z,10.60
2019-02-22T12:32:54.092Z,10.70
2019-02-22T12:35:21.110Z,10.70
2019-02-22T12:37:47.836Z,10.70
2019-02-22T12:40:15.541Z,10.70
2019-02-22T12:42:42.174Z,10.70
2019-02-22T12:45:08.843Z,10.80
2019-02-22T12:47:35.628Z,10.80
2019-02-22T12:50:02.575Z,10.80
2019-02-22T12:52:29.309Z,10.80
2019-02-22T12:54:56.345Z,10.80
2019-02-22T12:57:23.081Z,10.90
2019-02-22T12:59:51.737Z,10.90
2019-02-22T13:02:18.761Z,10.90
2019-02-22T13:04:45.614Z,10.90
2019-02-22T13:07:12.265Z,10.90
2019-02-22T13:09:38.995Z,11.00
2019-02-22T13:12:14.065Z,11.00
2019-02-22T13:14:35.175Z,11.00
2019-02-22T13:17:02.892Z,11.00
2019-02-22T13:19:29.836Z,11.00
2019-02-22T13:21:56.441Z,11.10
2019-02-22T13:24:24.857Z,11.10
2019-02-22T13:26:51.561Z,11.10
2019-02-22T13:29:18.243Z,11.10
2019-02-22T13:31:45.375Z,11.20
2019-02-22T13:34:12.444Z,11.20
2019-02-22T13:36:39.075Z,11.20
2019-02-22T13:39:05.731Z,11.20
2019-02-22T13:41:32.376Z,11.40
2019-02-22T13:43:59.089Z,11.30
2019-02-22T13:46:26.663Z,11.30
2019-02-22T13:48:53.493Z,11.30
2019-02-22T13:51:20.286Z,11.30
2019-02-22T13:53:47.007Z,11.40
2019-02-22T13:56:13.844Z,11.40
2019-02-22T13:58:40.450Z,11.40
2019-02-22T14:01:07.193Z,11.40
2019-02-22T14:03:33.869Z,11.50
2019-02-22T14:06:02.870Z,11.50
2019-02-22T14:08:29.846Z,11.50
2019-02-22T14:10:56.418Z,11.50
2019-02-22T14:13:23.095Z,11.60
2019-02-22T14:15:50.594Z,11.60
2019-02-22T14:18:17.466Z,11.60
2019-02-22T14:20:44.055Z,11.70
2019-02-22T14:23:10.874Z,11.70
2019-02-22T14:25:37.989Z,11.70
2019-02-22T14:28:05.960Z,11.70
2019-02-22T14:30:34.346Z,11.70
2019-02-22T14:33:01.041Z,11.80
2019-02-22T14:35:27.677Z,11.80
2019-02-22T14:37:55.669Z,11.70
2019-02-22T14:40:22.758Z,11.80
2019-02-22T14:42:49.588Z,11.90
2019-02-22T14:45:16.240Z,11.90
2019-02-22T14:47:42.988Z,11.90
2019-02-22T14:50:09.643Z,11.90
2019-02-22T14:52:36.554Z,12.00
2019-02-22T14:55:05.010Z,12.00
2019-02-22T14:57:31.778Z,12.00
2019-02-22T14:59:58.315Z,12.00
2019-02-22T15:02:24.901Z,12.10
2019-02-22T15:04:51.605Z,12.10
2019-02-22T15:07:18.390Z,12.10
2019-02-22T15:09:45.094Z,12.10
2019-02-22T15:12:12.832Z,12.20
2019-02-22T15:14:39.576Z,12.20
2019-02-22T15:17:27.352Z,12.20
2019-02-22T15:19:53.749Z,12.20
2019-02-22T15:22:20.520Z,12.20
2019-02-22T15:24:49.049Z,12.30
2019-02-22T15:27:15.682Z,12.30
2019-02-22T15:29:44.141Z,12.30
2019-02-22T15:32:11.297Z,12.30
2019-02-22T15:34:38.135Z,12.30
2019-02-22T15:37:04.998Z,12.40
2019-02-22T15:39:31.711Z,12.40
2019-02-22T15:41:58.709Z,12.40
2019-02-22T15:44:25.360Z,12.40
2019-02-22T15:46:52.379Z,12.40
2019-02-22T15:49:19.312Z,12.50
2019-02-22T15:51:46.011Z,12.50
2019-02-22T15:54:12.849Z,12.50
2019-02-22T15:56:39.522Z,12.50
2019-02-22T15:59:06.173Z,12.50
2019-02-22T16:01:32.873Z,12.50
2019-02-22T16:04:10.783Z,12.50
2019-02-22T16:06:37.453Z,12.60
2019-02-22T16:09:05.661Z,12.60
2019-02-22T16:11:32.769Z,12.60
2019-02-22T16:13:59.699Z,12.60
2019-02-22T16:16:26.593Z,12.60
2019-02-22T16:18:53.573Z,12.60
2019-02-22T16:21:20.629Z,12.60
2019-02-22T16:23:47.667Z,12.60
2019-02-22T16:26:16.099Z,12.60
2019-02-22T16:28:42.728Z,12.60
2019-02-22T16:31:09.574Z,12.60
2019-02-22T16:33:36.346Z,12.60
2019-02-22T16:36:04.052Z,12.60
2019-02-22T16:38:31.925Z,12.70
2019-02-22T16:40:58.574Z,12.60
2019-02-22T16:43:25.150Z,12.70
2019-02-22T16:45:53.292Z,12.70
2019-02-22T16:48:20.067Z,12.70
2019-02-22T16:50:47.055Z,12.70
2019-02-22T16:53:13.715Z,12.70
2019-02-22T16:55:40.294Z,12.70
2019-02-22T16:58:06.893Z,12.70
2019-02-22T17:00:34.082Z,12.70
2019-02-22T17:03:00.682Z,12.70
2019-02-22T17:05:27.278Z,12.70
2019-02-22T17:07:53.877Z,12.70
2019-02-22T17:10:20.673Z,12.70
2019-02-22T17:12:47.260Z,12.70
2019-02-22T17:15:13.856Z,12.50
2019-02-22T17:17:40.819Z,12.70
2019-02-22T17:20:07.565Z,12.70
2019-02-22T17:22:34.565Z,12.70
2019-02-22T17:25:01.171Z,12.70
2019-02-22T17:27:29.903Z,12.70
2019-02-22T17:29:56.342Z,12.70
2019-02-22T17:32:23.092Z,12.60
2019-02-22T17:34:49.738Z,12.60
2019-02-22T17:37:16.383Z,12.60
2019-02-22T17:39:45.830Z,12.60
2019-02-22T17:42:11.633Z,12.60
2019-02-22T17:44:38.286Z,12.60
2019-02-22T17:49:46.896Z,12.40
2019-02-22T17:52:13.872Z,12.60
2019-02-22T17:54:40.575Z,12.60
2019-02-22T17:57:07.263Z,12.60
2019-02-22T17:59:34.023Z,12.60
2019-02-22T18:02:00.603Z,12.60
2019-02-22T18:04:28.206Z,12.60
2019-02-22T18:06:55.330Z,12.60
2019-02-22T18:09:21.991Z,12.50
2019-02-22T18:11:48.752Z,12.50
2019-02-22T18:14:15.521Z,12.50
2019-02-22T18:16:42.293Z,12.50
2019-02-22T18:19:09.205Z,12.50
2019-02-22T18:21:35.815Z,12.50
2019-02-22T18:24:02.538Z,12.50
2019-02-22T18:26:30.209Z,12.50
2019-02-22T18:28:58.219Z,12.50
2019-02-22T18:31:24.972Z,12.50
2019-02-22T18:33:51.935Z,12.50
2019-02-22T18:36:18.567Z,12.40
2019-02-22T18:38:45.299Z,12.40
2019-02-22T18:41:15.122Z,12.40
2019-02-22T18:43:41.901Z,12.40
2019-02-22T18:46:10.438Z,12.40
2019-02-22T18:48:37.424Z,12.40
2019-02-22T18:51:04.047Z,12.40
2019-02-22T18:53:33.042Z,12.40
2019-02-22T18:55:59.652Z,12.30
2019-02-22T18:58:26.460Z,12.30
2019-02-22T19:00:53.186Z,12.30
2019-02-22T19:03:20.095Z,12.30
2019-02-22T19:05:47.052Z,12.10
2019-02-22T19:08:14.878Z,12.30
2019-02-22T19:10:41.609Z,12.30
2019-02-22T19:13:08.645Z,12.30
2019-02-22T19:15:35.210Z,12.30
2019-02-22T19:18:01.788Z,12.30
2019-02-22T19:20:28.822Z,12.20
2019-02-22T19:22:55.448Z,12.20
2019-02-22T19:25:22.104Z,11.90
2019-02-22T19:27:48.708Z,12.20
2019-02-22T19:30:15.308Z,12.20
2019-02-22T19:32:43.816Z,12.20
2019-02-22T19:35:10.498Z,12.20
2019-02-22T19:37:37.516Z,12.20
2019-02-22T19:40:06.043Z,12.10
2019-02-22T19:42:32.591Z,12.10
2019-02-22T19:44:59.619Z,12.10
2019-02-22T19:47:26.796Z,12.10
2019-02-22T19:49:53.474Z,12.10
2019-02-22T19:52:20.242Z,12.10
2019-02-22T19:54:47.312Z,12.10
2019-02-22T19:57:13.911Z,12.10
2019-02-22T19:59:40.563Z,12.10
2019-02-22T20:02:07.173Z,12.00
2019-02-22T20:04:33.798Z,12.00
2019-02-22T20:07:02.397Z,12.00
2019-02-22T20:09:29.023Z,12.00
2019-02-22T20:11:55.995Z,12.00
2019-02-22T20:14:22.731Z,12.00
2019-02-22T20:16:49.557Z,12.00
2019-02-22T20:19:16.210Z,12.00
2019-02-22T20:21:43.913Z,12.00
2019-02-22T20:24:10.559Z,11.90
2019-02-22T20:26:39.163Z,11.90
2019-02-22T20:29:05.761Z,11.60
2019-02-22T20:31:32.858Z,11.90
2019-02-22T20:34:01.854Z,11.90
2019-02-22T20:36:28.930Z,11.90
2019-02-22T20:39:00.005Z,11.90
2019-02-22T20:41:27.267Z,11.90
2019-02-22T20:43:54.264Z,11.90
2019-02-22T20:46:20.887Z,11.90
2019-02-22T20:48:47.470Z,11.80
2019-02-22T20:51:14.703Z,11.80
2019-02-22T20:53:41.341Z,11.80
2019-02-22T20:56:07.967Z,11.80
2019-02-22T20:58:35.043Z,11.80
2019-02-22T21:01:14.243Z,11.80
2019-02-22T21:03:32.259Z,11.80
2019-02-22T21:05:58.933Z,11.80
2019-02-22T21:08:25.536Z,11.70
2019-02-22T21:10:52.210Z,11.70
2019-02-22T21:13:19.000Z,11.70
2019-02-22T21:15:45.864Z,11.70
2019-02-22T21:18:16.373Z,11.70
2019-02-22T21:20:41.298Z,11.70
2019-02-22T21:23:07.979Z,11.70
2019-02-22T21:25:34.582Z,11.60
2019-02-22T21:28:03.709Z,11.60
2019-02-22T21:30:31.008Z,11.60
2019-02-22T21:32:57.660Z,11.60
2019-02-22T21:35:24.264Z,11.60
2019-02-22T21:37:51.221Z,11.60
2019-02-22T21:40:18.042Z,11.50
2019-02-22T21:42:44.810Z,11.50
2019-02-22T21:45:11.565Z,11.50
2019-02-22T21:47:38.208Z,11.50
2019-02-22T21:50:04.914Z,11.50
2019-02-22T21:52:31.553Z,11.50
2019-02-22T21:54:58.160Z,11.50
2019-02-22T21:57:24.766Z,11.40
2019-02-22T21:59:51.522Z,11.40
2019-02-22T22:02:18.324Z,11.40
2019-02-22T22:04:48.730Z,11.40
2019-02-22T22:07:15.396Z,11.40
2019-02-22T22:09:42.125Z,11.40
2019-02-22T22:12:10.125Z,11.40
2019-02-22T22:14:37.094Z,11.30
2019-02-22T22:17:04.072Z,11.30
2019-02-22T22:19:30.844Z,11.30
2019-02-22T22:21:58.598Z,11.30
2019-02-22T22:24:25.192Z,11.30
2019-02-22T22:26:51.818Z,11.30
2019-02-22T22:29:18.813Z,11.20
2019-02-22T22:31:45.529Z,11.20
2019-02-22T22:34:12.527Z,11.20
2019-02-22T22:36:39.239Z,11.20
2019-02-22T22:39:05.808Z,11.20
2019-02-22T22:41:33.546Z,11.20
2019-02-22T22:44:00.171Z,11.10
2019-02-22T22:46:36.584Z,11.10
2019-02-22T22:48:56.464Z,11.10
2019-02-22T22:51:23.381Z,11.10
2019-02-22T22:53:50.146Z,11.10
2019-02-22T22:56:16.821Z,11.00
2019-02-22T22:58:43.484Z,11.00
2019-02-22T23:01:29.668Z,11.00
2019-02-22T23:03:56.331Z,11.00
2019-02-22T23:06:22.910Z,11.00
2019-02-22T23:08:50.411Z,11.00
2019-02-22T23:11:18.851Z,10.90
2019-02-22T23:13:45.635Z,10.90
2019-02-22T23:16:12.738Z,10.90
2019-02-22T23:18:39.389Z,10.90
2019-02-22T23:21:07.879Z,10.90
2019-02-22T23:23:34.760Z,10.90
2019-02-22T23:26:01.545Z,10.80
2019-02-22T23:28:29.218Z,10.80
2019-02-22T23:30:57.357Z,10.80
2019-02-22T23:33:24.084Z,10.80
2019-02-22T23:35:51.096Z,10.80
2019-02-22T23:38:17.822Z,10.80
2019-02-22T23:40:44.549Z,10.80
2019-02-22T23:43:13.534Z,10.70
2019-02-22T23:45:39.562Z,10.70
2019-02-22T23:48:07.524Z,10.70
2019-02-22T23:50:34.234Z,10.70
2019-02-22T23:53:00.957Z,10.70
2019-02-22T23:55:27.714Z,10.40
2019-02-22T23:57:54.361Z,10.70
